sensor_id;sensor_type;location;lat;lon;timestamp;temperature;humidity
573;DHT22;271;51.114;13.780;2023-09-19T00:00:41;17.30;7.90
573;DHT22;271;51.114;13.780;2023-09-19T00:03:31;17.20;6.80
573;DHT22;271;51.114;13.780;2023-09-19T00:06:19;17.20;7.80
573;DHT22;271;51.114;13.780;2023-09-19T00:09:07;17.20;6.70
573;DHT22;271;51.114;13.780;2023-09-19T00:11:56;17.20;4.50
573;DHT22;271;51.114;13.780;2023-09-19T00:14:44;17.20;2.90
573;DHT22;271;51.114;13.780;2023-09-19T00:17:32;17.20;6.50
573;DHT22;271;51.114;13.780;2023-09-19T00:20:22;17.20;6.20
573;DHT22;271;51.114;13.780;2023-09-19T00:23:11;17.20;5.90
573;DHT22;271;51.114;13.780;2023-09-19T00:25:59;17.20;10.30
573;DHT22;271;51.114;13.780;2023-09-19T00:28:47;17.10;11.70
573;DHT22;271;51.114;13.780;2023-09-19T00:31:35;17.10;8.30
573;DHT22;271;51.114;13.780;2023-09-19T00:34:24;17.00;10.30
573;DHT22;271;51.114;13.780;2023-09-19T00:37:13;17.00;9.90
573;DHT22;271;51.114;13.780;2023-09-19T00:40:00;17.00;10.10
573;DHT22;271;51.114;13.780;2023-09-19T00:42:49;17.00;6.50
573;DHT22;271;51.114;13.780;2023-09-19T00:45:37;17.00;9.20
573;DHT22;271;51.114;13.780;2023-09-19T00:48:27;17.00;10.40
573;DHT22;271;51.114;13.780;2023-09-19T00:51:15;17.00;12.20
573;DHT22;271;51.114;13.780;2023-09-19T00:54:07;17.10;10.60
573;DHT22;271;51.114;13.780;2023-09-19T00:56:55;17.00;6.80
573;DHT22;271;51.114;13.780;2023-09-19T00:59:43;17.00;9.50
573;DHT22;271;51.114;13.780;2023-09-19T01:02:31;17.00;8.70
573;DHT22;271;51.114;13.780;2023-09-19T01:05:19;17.00;12.10
573;DHT22;271;51.114;13.780;2023-09-19T01:08:09;16.90;9.80
573;DHT22;271;51.114;13.780;2023-09-19T01:11:03;17.00;6.70
573;DHT22;271;51.114;13.780;2023-09-19T01:14:06;17.00;6.50
573;DHT22;271;51.114;13.780;2023-09-19T01:17:03;17.10;8.20
573;DHT22;271;51.114;13.780;2023-09-19T01:23:18;17.10;10.30
573;DHT22;271;51.114;13.780;2023-09-19T01:26:21;17.00;10.40
573;DHT22;271;51.114;13.780;2023-09-19T01:29:26;17.10;11.60
573;DHT22;271;51.114;13.780;2023-09-19T01:32:23;17.10;3.70
573;DHT22;271;51.114;13.780;2023-09-19T01:35:12;17.10;1.60
573;DHT22;271;51.114;13.780;2023-09-19T01:38:00;17.10;1.00
573;DHT22;271;51.114;13.780;2023-09-19T01:40:57;17.10;1.00
573;DHT22;271;51.114;13.780;2023-09-19T01:43:46;17.20;1.00
573;DHT22;271;51.114;13.780;2023-09-19T01:46:40;17.20;1.00
573;DHT22;271;51.114;13.780;2023-09-19T01:49:39;17.20;1.00
573;DHT22;271;51.114;13.780;2023-09-19T01:52:38;17.30;1.00
573;DHT22;271;51.114;13.780;2023-09-19T01:55:29;17.30;1.00
573;DHT22;271;51.114;13.780;2023-09-19T01:58:21;17.30;1.00
573;DHT22;271;51.114;13.780;2023-09-19T02:01:17;17.40;1.00
573;DHT22;271;51.114;13.780;2023-09-19T02:04:07;17.40;1.00
573;DHT22;271;51.114;13.780;2023-09-19T02:06:56;17.40;1.00
573;DHT22;271;51.114;13.780;2023-09-19T02:09:44;17.50;1.00
573;DHT22;271;51.114;13.780;2023-09-19T02:12:34;17.40;1.00
573;DHT22;271;51.114;13.780;2023-09-19T02:15:22;17.50;1.00
573;DHT22;271;51.114;13.780;2023-09-19T02:18:10;17.50;1.00
573;DHT22;271;51.114;13.780;2023-09-19T02:20:57;17.50;1.00
573;DHT22;271;51.114;13.780;2023-09-19T02:23:47;17.50;1.00
573;DHT22;271;51.114;13.780;2023-09-19T02:26:34;17.50;1.00
573;DHT22;271;51.114;13.780;2023-09-19T02:29:23;17.50;1.00
573;DHT22;271;51.114;13.780;2023-09-19T02:32:11;17.50;1.00
573;DHT22;271;51.114;13.780;2023-09-19T02:34:58;17.40;1.00
573;DHT22;271;51.114;13.780;2023-09-19T02:37:47;17.50;1.00
573;DHT22;271;51.114;13.780;2023-09-19T02:40:36;17.50;1.00
573;DHT22;271;51.114;13.780;2023-09-19T02:43:24;17.40;1.00
573;DHT22;271;51.114;13.780;2023-09-19T02:46:12;17.30;1.00
573;DHT22;271;51.114;13.780;2023-09-19T02:49:00;17.40;1.00
573;DHT22;271;51.114;13.780;2023-09-19T02:51:48;17.40;1.00
573;DHT22;271;51.114;13.780;2023-09-19T02:54:36;17.40;1.00
573;DHT22;271;51.114;13.780;2023-09-19T02:57:25;17.40;1.00
573;DHT22;271;51.114;13.780;2023-09-19T03:00:14;17.40;1.00
573;DHT22;271;51.114;13.780;2023-09-19T03:03:03;17.40;1.00
573;DHT22;271;51.114;13.780;2023-09-19T03:05:54;17.50;1.00
573;DHT22;271;51.114;13.780;2023-09-19T03:08:42;17.40;1.00
573;DHT22;271;51.114;13.780;2023-09-19T03:11:30;17.40;1.00
573;DHT22;271;51.114;13.780;2023-09-19T03:14:19;17.40;1.00
573;DHT22;271;51.114;13.780;2023-09-19T03:17:07;17.30;1.00
573;DHT22;271;51.114;13.780;2023-09-19T03:19:55;17.20;3.00
573;DHT22;271;51.114;13.780;2023-09-19T03:22:43;17.10;6.80
573;DHT22;271;51.114;13.780;2023-09-19T03:25:34;17.10;3.50
573;DHT22;271;51.114;13.780;2023-09-19T03:28:22;17.10;7.70
573;DHT22;271;51.114;13.780;2023-09-19T03:31:12;17.10;8.40
573;DHT22;271;51.114;13.780;2023-09-19T03:34:00;17.10;6.20
573;DHT22;271;51.114;13.780;2023-09-19T03:36:47;17.10;4.90
573;DHT22;271;51.114;13.780;2023-09-19T03:39:35;17.10;4.90
573;DHT22;271;51.114;13.780;2023-09-19T03:42:23;17.10;7.10
573;DHT22;271;51.114;13.780;2023-09-19T03:45:12;17.10;2.50
573;DHT22;271;51.114;13.780;2023-09-19T03:48:08;17.10;2.50
573;DHT22;271;51.114;13.780;2023-09-19T03:50:56;17.20;1.00
573;DHT22;271;51.114;13.780;2023-09-19T03:53:43;17.10;1.00
573;DHT22;271;51.114;13.780;2023-09-19T03:56:31;17.20;1.00
573;DHT22;271;51.114;13.780;2023-09-19T03:59:19;17.20;1.00
573;DHT22;271;51.114;13.780;2023-09-19T04:02:06;17.20;1.00
573;DHT22;271;51.114;13.780;2023-09-19T04:04:59;17.10;1.00
573;DHT22;271;51.114;13.780;2023-09-19T04:07:47;17.20;1.00
573;DHT22;271;51.114;13.780;2023-09-19T04:10:34;17.20;1.00
573;DHT22;271;51.114;13.780;2023-09-19T04:13:22;17.20;1.00
573;DHT22;271;51.114;13.780;2023-09-19T04:16:10;17.20;1.00
573;DHT22;271;51.114;13.780;2023-09-19T04:18:58;17.20;1.00
573;DHT22;271;51.114;13.780;2023-09-19T04:21:47;17.30;1.00
573;DHT22;271;51.114;13.780;2023-09-19T04:24:35;17.30;1.00
573;DHT22;271;51.114;13.780;2023-09-19T04:27:24;17.30;1.00
573;DHT22;271;51.114;13.780;2023-09-19T04:30:12;17.40;1.00
573;DHT22;271;51.114;13.780;2023-09-19T04:33:01;17.40;1.00
573;DHT22;271;51.114;13.780;2023-09-19T04:35:49;17.40;1.00
573;DHT22;271;51.114;13.780;2023-09-19T04:38:39;17.30;1.00
573;DHT22;271;51.114;13.780;2023-09-19T04:41:27;17.40;1.00
573;DHT22;271;51.114;13.780;2023-09-19T04:44:15;17.30;1.00
573;DHT22;271;51.114;13.780;2023-09-19T04:47:03;17.30;1.00
573;DHT22;271;51.114;13.780;2023-09-19T04:49:52;17.30;1.00
573;DHT22;271;51.114;13.780;2023-09-19T04:52:40;17.40;1.00
573;DHT22;271;51.114;13.780;2023-09-19T04:55:31;17.20;1.00
573;DHT22;271;51.114;13.780;2023-09-19T04:58:19;17.30;1.00
573;DHT22;271;51.114;13.780;2023-09-19T05:01:07;17.30;1.00
573;DHT22;271;51.114;13.780;2023-09-19T05:03:58;17.30;1.00
573;DHT22;271;51.114;13.780;2023-09-19T05:06:45;17.30;1.00
573;DHT22;271;51.114;13.780;2023-09-19T05:09:34;17.30;1.00
573;DHT22;271;51.114;13.780;2023-09-19T05:12:23;17.30;1.00
573;DHT22;271;51.114;13.780;2023-09-19T05:15:11;17.20;1.00
573;DHT22;271;51.114;13.780;2023-09-19T05:17:59;17.40;1.00
573;DHT22;271;51.114;13.780;2023-09-19T05:20:46;17.40;1.00
573;DHT22;271;51.114;13.780;2023-09-19T05:23:36;17.40;1.00
573;DHT22;271;51.114;13.780;2023-09-19T05:26:24;17.40;1.00
573;DHT22;271;51.114;13.780;2023-09-19T05:29:13;17.50;1.00
573;DHT22;271;51.114;13.780;2023-09-19T05:32:00;17.40;1.00
573;DHT22;271;51.114;13.780;2023-09-19T05:34:50;17.40;1.00
573;DHT22;271;51.114;13.780;2023-09-19T05:37:39;17.40;1.00
573;DHT22;271;51.114;13.780;2023-09-19T05:40:27;17.40;1.00
573;DHT22;271;51.114;13.780;2023-09-19T05:43:15;17.50;1.00
573;DHT22;271;51.114;13.780;2023-09-19T05:46:04;17.50;1.00
573;DHT22;271;51.114;13.780;2023-09-19T05:48:51;17.50;1.00
573;DHT22;271;51.114;13.780;2023-09-19T05:51:39;17.60;1.00
573;DHT22;271;51.114;13.780;2023-09-19T05:54:27;17.60;1.00
573;DHT22;271;51.114;13.780;2023-09-19T05:57:15;17.60;1.00
573;DHT22;271;51.114;13.780;2023-09-19T06:00:03;17.60;1.00
573;DHT22;271;51.114;13.780;2023-09-19T06:02:58;17.60;1.00
573;DHT22;271;51.114;13.780;2023-09-19T06:05:46;17.70;1.00
573;DHT22;271;51.114;13.780;2023-09-19T06:08:35;17.80;1.00
573;DHT22;271;51.114;13.780;2023-09-19T06:11:23;17.80;1.00
573;DHT22;271;51.114;13.780;2023-09-19T06:14:12;17.90;1.00
573;DHT22;271;51.114;13.780;2023-09-19T06:17:00;17.80;1.00
573;DHT22;271;51.114;13.780;2023-09-19T06:19:49;18.00;1.00
573;DHT22;271;51.114;13.780;2023-09-19T06:22:37;18.10;1.00
573;DHT22;271;51.114;13.780;2023-09-19T06:25:25;18.20;1.00
573;DHT22;271;51.114;13.780;2023-09-19T06:28:14;18.30;1.00
573;DHT22;271;51.114;13.780;2023-09-19T06:31:05;18.40;1.00
573;DHT22;271;51.114;13.780;2023-09-19T06:33:56;18.60;1.00
573;DHT22;271;51.114;13.780;2023-09-19T06:36:46;18.70;1.00
573;DHT22;271;51.114;13.780;2023-09-19T06:39:34;18.80;1.00
573;DHT22;271;51.114;13.780;2023-09-19T06:42:22;19.20;1.00
573;DHT22;271;51.114;13.780;2023-09-19T06:45:10;19.60;1.00
573;DHT22;271;51.114;13.780;2023-09-19T06:47:59;20.20;1.00
573;DHT22;271;51.114;13.780;2023-09-19T06:50:49;20.90;1.00
573;DHT22;271;51.114;13.780;2023-09-19T06:53:38;21.50;1.00
573;DHT22;271;51.114;13.780;2023-09-19T06:56:26;22.00;1.00
573;DHT22;271;51.114;13.780;2023-09-19T06:59:14;22.30;1.00
573;DHT22;271;51.114;13.780;2023-09-19T07:02:03;22.50;1.00
573;DHT22;271;51.114;13.780;2023-09-19T07:04:52;22.50;1.00
573;DHT22;271;51.114;13.780;2023-09-19T07:07:40;22.90;1.00
573;DHT22;271;51.114;13.780;2023-09-19T07:10:29;23.70;1.00
573;DHT22;271;51.114;13.780;2023-09-19T07:13:17;24.50;1.00
573;DHT22;271;51.114;13.780;2023-09-19T07:16:05;25.10;1.00
573;DHT22;271;51.114;13.780;2023-09-19T07:18:55;25.50;1.00
573;DHT22;271;51.114;13.780;2023-09-19T07:21:43;25.80;1.00
573;DHT22;271;51.114;13.780;2023-09-19T07:24:33;26.30;1.00
573;DHT22;271;51.114;13.780;2023-09-19T07:27:24;27.00;1.00
573;DHT22;271;51.114;13.780;2023-09-19T07:30:12;27.30;1.00
573;DHT22;271;51.114;13.780;2023-09-19T07:33:01;27.60;1.00
573;DHT22;271;51.114;13.780;2023-09-19T07:35:49;27.90;1.00
573;DHT22;271;51.114;13.780;2023-09-19T07:38:37;27.90;1.00
573;DHT22;271;51.114;13.780;2023-09-19T07:41:25;26.70;1.00
573;DHT22;271;51.114;13.780;2023-09-19T07:44:15;25.60;1.00
573;DHT22;271;51.114;13.780;2023-09-19T07:47:03;24.70;1.00
573;DHT22;271;51.114;13.780;2023-09-19T07:49:54;23.90;1.00
573;DHT22;271;51.114;13.780;2023-09-19T07:52:42;23.30;1.00
573;DHT22;271;51.114;13.780;2023-09-19T07:55:30;22.60;1.00
573;DHT22;271;51.114;13.780;2023-09-19T07:58:20;22.40;1.00
573;DHT22;271;51.114;13.780;2023-09-19T08:01:10;22.10;1.00
573;DHT22;271;51.114;13.780;2023-09-19T08:04:00;21.80;1.00
573;DHT22;271;51.114;13.780;2023-09-19T08:06:48;21.60;1.00
573;DHT22;271;51.114;13.780;2023-09-19T08:09:38;21.30;1.00
573;DHT22;271;51.114;13.780;2023-09-19T08:12:26;21.20;1.00
573;DHT22;271;51.114;13.780;2023-09-19T08:15:14;21.10;1.00
573;DHT22;271;51.114;13.780;2023-09-19T08:18:04;21.00;1.00
573;DHT22;271;51.114;13.780;2023-09-19T08:20:52;21.20;1.00
573;DHT22;271;51.114;13.780;2023-09-19T08:23:43;21.60;1.00
573;DHT22;271;51.114;13.780;2023-09-19T08:26:31;21.90;1.00
573;DHT22;271;51.114;13.780;2023-09-19T08:29:18;22.10;1.00
573;DHT22;271;51.114;13.780;2023-09-19T08:32:06;23.00;1.00
573;DHT22;271;51.114;13.780;2023-09-19T08:34:58;23.70;1.00
573;DHT22;271;51.114;13.780;2023-09-19T08:37:46;24.30;1.00
573;DHT22;271;51.114;13.780;2023-09-19T08:40:37;24.60;1.00
573;DHT22;271;51.114;13.780;2023-09-19T08:43:26;24.30;1.00
573;DHT22;271;51.114;13.780;2023-09-19T08:46:16;24.10;1.00
573;DHT22;271;51.114;13.780;2023-09-19T08:49:08;23.50;1.00
573;DHT22;271;51.114;13.780;2023-09-19T08:52:05;22.70;1.00
573;DHT22;271;51.114;13.780;2023-09-19T08:54:59;22.60;1.00
573;DHT22;271;51.114;13.780;2023-09-19T08:57:49;22.80;1.00
573;DHT22;271;51.114;13.780;2023-09-19T09:00:39;22.90;1.00
573;DHT22;271;51.114;13.780;2023-09-19T09:03:37;23.10;1.00
573;DHT22;271;51.114;13.780;2023-09-19T09:06:29;23.20;1.00
573;DHT22;271;51.114;13.780;2023-09-19T09:09:20;23.60;1.00
573;DHT22;271;51.114;13.780;2023-09-19T09:12:10;24.00;1.00
573;DHT22;271;51.114;13.780;2023-09-19T09:15:00;24.30;1.00
573;DHT22;271;51.114;13.780;2023-09-19T09:17:50;24.80;1.00
573;DHT22;271;51.114;13.780;2023-09-19T09:20:39;25.00;1.00
573;DHT22;271;51.114;13.780;2023-09-19T09:23:27;24.80;1.00
573;DHT22;271;51.114;13.780;2023-09-19T09:26:23;24.70;1.00
573;DHT22;271;51.114;13.780;2023-09-19T09:29:42;24.50;1.00
573;DHT22;271;51.114;13.780;2023-09-19T09:32:30;24.60;1.00
573;DHT22;271;51.114;13.780;2023-09-19T09:35:20;25.00;1.00
573;DHT22;271;51.114;13.780;2023-09-19T09:38:09;25.40;1.00
573;DHT22;271;51.114;13.780;2023-09-19T09:40:57;25.20;1.00
573;DHT22;271;51.114;13.780;2023-09-19T09:43:54;24.60;1.00
573;DHT22;271;51.114;13.780;2023-09-19T09:46:45;24.70;1.00
573;DHT22;271;51.114;13.780;2023-09-19T09:50:06;25.10;1.00
573;DHT22;271;51.114;13.780;2023-09-19T09:52:53;25.60;1.00
573;DHT22;271;51.114;13.780;2023-09-19T09:56:04;26.00;1.00
573;DHT22;271;51.114;13.780;2023-09-19T09:58:54;26.40;1.00
573;DHT22;271;51.114;13.780;2023-09-19T10:01:48;26.40;1.00
573;DHT22;271;51.114;13.780;2023-09-19T10:04:36;26.40;1.00
573;DHT22;271;51.114;13.780;2023-09-19T10:07:37;26.40;1.00
573;DHT22;271;51.114;13.780;2023-09-19T10:10:32;26.60;1.00
573;DHT22;271;51.114;13.780;2023-09-19T10:13:39;26.60;1.00
573;DHT22;271;51.114;13.780;2023-09-19T10:16:30;26.60;1.00
573;DHT22;271;51.114;13.780;2023-09-19T10:19:23;26.30;1.00
573;DHT22;271;51.114;13.780;2023-09-19T10:22:14;26.10;1.00
573;DHT22;271;51.114;13.780;2023-09-19T10:25:04;26.00;1.00
573;DHT22;271;51.114;13.780;2023-09-19T10:27:55;25.80;1.00
573;DHT22;271;51.114;13.780;2023-09-19T10:30:46;25.70;1.00
573;DHT22;271;51.114;13.780;2023-09-19T10:33:39;25.70;1.00
573;DHT22;271;51.114;13.780;2023-09-19T10:36:37;25.50;1.00
573;DHT22;271;51.114;13.780;2023-09-19T10:39:30;25.30;1.00
573;DHT22;271;51.114;13.780;2023-09-19T10:42:20;25.20;1.00
573;DHT22;271;51.114;13.780;2023-09-19T10:45:08;24.90;1.00
573;DHT22;271;51.114;13.780;2023-09-19T10:48:00;24.60;1.00
573;DHT22;271;51.114;13.780;2023-09-19T10:50:52;24.30;1.00
573;DHT22;271;51.114;13.780;2023-09-19T10:53:45;24.10;1.00
573;DHT22;271;51.114;13.780;2023-09-19T10:56:36;24.00;1.00
573;DHT22;271;51.114;13.780;2023-09-19T10:59:24;24.10;1.00
573;DHT22;271;51.114;13.780;2023-09-19T11:02:20;24.00;1.00
573;DHT22;271;51.114;13.780;2023-09-19T11:05:13;24.00;1.00
573;DHT22;271;51.114;13.780;2023-09-19T11:08:05;23.90;1.00
573;DHT22;271;51.114;13.780;2023-09-19T11:10:59;23.90;1.00
573;DHT22;271;51.114;13.780;2023-09-19T11:17:42;23.50;1.00
573;DHT22;271;51.114;13.780;2023-09-19T11:20:33;23.30;1.00
573;DHT22;271;51.114;13.780;2023-09-19T11:23:29;23.20;1.00
573;DHT22;271;51.114;13.780;2023-09-19T11:26:40;23.20;1.00
573;DHT22;271;51.114;13.780;2023-09-19T11:29:30;23.10;1.00
573;DHT22;271;51.114;13.780;2023-09-19T11:35:59;23.00;1.00
573;DHT22;271;51.114;13.780;2023-09-19T11:39:01;23.00;1.00
573;DHT22;271;51.114;13.780;2023-09-19T11:41:57;23.10;1.00
573;DHT22;271;51.114;13.780;2023-09-19T11:44:46;23.30;1.00
573;DHT22;271;51.114;13.780;2023-09-19T11:47:38;23.40;1.00
573;DHT22;271;51.114;13.780;2023-09-19T11:50:28;23.40;1.00
573;DHT22;271;51.114;13.780;2023-09-19T11:53:20;23.30;1.00
573;DHT22;271;51.114;13.780;2023-09-19T11:56:10;23.30;1.00
573;DHT22;271;51.114;13.780;2023-09-19T11:58:58;23.30;1.00
573;DHT22;271;51.114;13.780;2023-09-19T12:01:53;23.40;1.00
573;DHT22;271;51.114;13.780;2023-09-19T12:04:44;23.40;1.00
573;DHT22;271;51.114;13.780;2023-09-19T12:07:49;23.30;1.00
573;DHT22;271;51.114;13.780;2023-09-19T12:10:45;23.20;1.00
573;DHT22;271;51.114;13.780;2023-09-19T12:13:35;23.30;1.00
573;DHT22;271;51.114;13.780;2023-09-19T12:16:24;23.20;1.00
573;DHT22;271;51.114;13.780;2023-09-19T12:19:19;23.20;1.00
573;DHT22;271;51.114;13.780;2023-09-19T12:22:08;23.20;1.00
573;DHT22;271;51.114;13.780;2023-09-19T12:25:05;23.20;1.00
573;DHT22;271;51.114;13.780;2023-09-19T12:27:54;23.20;1.00
573;DHT22;271;51.114;13.780;2023-09-19T12:30:45;23.20;1.00
573;DHT22;271;51.114;13.780;2023-09-19T12:33:33;23.20;1.00
573;DHT22;271;51.114;13.780;2023-09-19T12:36:22;23.20;1.00
573;DHT22;271;51.114;13.780;2023-09-19T12:39:24;23.30;1.00
573;DHT22;271;51.114;13.780;2023-09-19T12:42:13;23.30;1.00
573;DHT22;271;51.114;13.780;2023-09-19T12:45:01;23.20;1.00
573;DHT22;271;51.114;13.780;2023-09-19T12:48:22;23.30;1.00
573;DHT22;271;51.114;13.780;2023-09-19T12:51:15;23.10;1.00
573;DHT22;271;51.114;13.780;2023-09-19T12:54:09;23.00;1.00
573;DHT22;271;51.114;13.780;2023-09-19T12:56:57;22.90;1.00
573;DHT22;271;51.114;13.780;2023-09-19T12:59:45;22.90;1.00
573;DHT22;271;51.114;13.780;2023-09-19T13:02:33;22.80;1.00
573;DHT22;271;51.114;13.780;2023-09-19T13:05:48;22.90;1.00
573;DHT22;271;51.114;13.780;2023-09-19T13:08:40;22.90;1.00
573;DHT22;271;51.114;13.780;2023-09-19T13:11:36;23.00;1.00
573;DHT22;271;51.114;13.780;2023-09-19T13:14:26;23.00;1.00
573;DHT22;271;51.114;13.780;2023-09-19T13:17:15;23.00;1.00
573;DHT22;271;51.114;13.780;2023-09-19T13:20:03;23.00;1.00
573;DHT22;271;51.114;13.780;2023-09-19T13:22:55;22.90;1.00
573;DHT22;271;51.114;13.780;2023-09-19T13:25:46;22.90;1.00
573;DHT22;271;51.114;13.780;2023-09-19T13:28:34;23.00;1.00
573;DHT22;271;51.114;13.780;2023-09-19T13:31:22;23.00;1.00
573;DHT22;271;51.114;13.780;2023-09-19T13:34:10;23.10;1.00
573;DHT22;271;51.114;13.780;2023-09-19T13:36:58;23.10;1.00
573;DHT22;271;51.114;13.780;2023-09-19T13:39:48;23.10;1.00
573;DHT22;271;51.114;13.780;2023-09-19T13:42:36;23.10;1.00
573;DHT22;271;51.114;13.780;2023-09-19T13:45:23;23.10;1.00
573;DHT22;271;51.114;13.780;2023-09-19T13:48:16;23.00;1.00
573;DHT22;271;51.114;13.780;2023-09-19T13:51:06;23.00;1.00
573;DHT22;271;51.114;13.780;2023-09-19T13:53:54;23.10;1.00
573;DHT22;271;51.114;13.780;2023-09-19T13:56:43;23.10;1.00
573;DHT22;271;51.114;13.780;2023-09-19T13:59:31;23.20;1.00
573;DHT22;271;51.114;13.780;2023-09-19T14:02:19;23.20;1.00
573;DHT22;271;51.114;13.780;2023-09-19T14:05:08;23.10;1.00
573;DHT22;271;51.114;13.780;2023-09-19T14:07:59;23.20;1.00
573;DHT22;271;51.114;13.780;2023-09-19T14:10:47;23.20;1.00
573;DHT22;271;51.114;13.780;2023-09-19T14:13:36;23.30;1.00
573;DHT22;271;51.114;13.780;2023-09-19T14:16:25;23.30;1.00
573;DHT22;271;51.114;13.780;2023-09-19T14:19:16;23.40;1.00
573;DHT22;271;51.114;13.780;2023-09-19T14:22:04;23.40;1.00
573;DHT22;271;51.114;13.780;2023-09-19T14:24:54;23.30;1.00
573;DHT22;271;51.114;13.780;2023-09-19T14:27:41;23.20;1.00
573;DHT22;271;51.114;13.780;2023-09-19T14:30:32;23.10;1.00
573;DHT22;271;51.114;13.780;2023-09-19T14:33:19;23.00;1.00
573;DHT22;271;51.114;13.780;2023-09-19T14:36:08;22.90;1.00
573;DHT22;271;51.114;13.780;2023-09-19T14:38:57;22.90;1.00
573;DHT22;271;51.114;13.780;2023-09-19T14:41:44;22.70;1.00
573;DHT22;271;51.114;13.780;2023-09-19T14:44:32;22.70;1.00
573;DHT22;271;51.114;13.780;2023-09-19T14:47:22;22.70;1.00
573;DHT22;271;51.114;13.780;2023-09-19T14:50:10;22.70;1.00
573;DHT22;271;51.114;13.780;2023-09-19T14:52:58;22.60;1.00
573;DHT22;271;51.114;13.780;2023-09-19T14:55:48;22.50;1.00
573;DHT22;271;51.114;13.780;2023-09-19T14:58:38;22.50;1.00
573;DHT22;271;51.114;13.780;2023-09-19T15:01:28;22.50;1.00
573;DHT22;271;51.114;13.780;2023-09-19T15:04:17;22.50;1.00
573;DHT22;271;51.114;13.780;2023-09-19T15:07:05;22.40;1.00
573;DHT22;271;51.114;13.780;2023-09-19T15:09:53;22.40;1.00
573;DHT22;271;51.114;13.780;2023-09-19T15:12:40;22.40;1.00
573;DHT22;271;51.114;13.780;2023-09-19T15:15:28;22.20;1.00
573;DHT22;271;51.114;13.780;2023-09-19T15:18:16;22.30;1.00
573;DHT22;271;51.114;13.780;2023-09-19T15:21:06;22.30;1.00
573;DHT22;271;51.114;13.780;2023-09-19T15:23:53;22.20;1.00
573;DHT22;271;51.114;13.780;2023-09-19T15:26:42;22.10;1.00
573;DHT22;271;51.114;13.780;2023-09-19T15:29:31;22.10;1.00
573;DHT22;271;51.114;13.780;2023-09-19T15:32:19;22.10;1.00
573;DHT22;271;51.114;13.780;2023-09-19T15:35:07;22.10;1.00
573;DHT22;271;51.114;13.780;2023-09-19T15:37:57;22.00;1.00
573;DHT22;271;51.114;13.780;2023-09-19T15:40:46;22.00;1.00
573;DHT22;271;51.114;13.780;2023-09-19T15:43:34;22.00;1.00
573;DHT22;271;51.114;13.780;2023-09-19T15:46:23;21.90;1.00
573;DHT22;271;51.114;13.780;2023-09-19T15:49:14;21.80;1.00
573;DHT22;271;51.114;13.780;2023-09-19T15:52:01;21.70;1.00
573;DHT22;271;51.114;13.780;2023-09-19T15:54:51;21.60;1.00
573;DHT22;271;51.114;13.780;2023-09-19T15:57:39;21.60;1.00
573;DHT22;271;51.114;13.780;2023-09-19T16:00:26;21.60;1.00
573;DHT22;271;51.114;13.780;2023-09-19T16:03:17;21.60;1.00
573;DHT22;271;51.114;13.780;2023-09-19T16:06:08;21.50;1.00
573;DHT22;271;51.114;13.780;2023-09-19T16:08:58;21.50;1.00
573;DHT22;271;51.114;13.780;2023-09-19T16:11:51;21.40;1.00
573;DHT22;271;51.114;13.780;2023-09-19T16:14:39;21.40;1.00
573;DHT22;271;51.114;13.780;2023-09-19T16:17:26;21.40;1.00
573;DHT22;271;51.114;13.780;2023-09-19T16:20:14;21.30;1.00
573;DHT22;271;51.114;13.780;2023-09-19T16:23:03;21.20;1.00
573;DHT22;271;51.114;13.780;2023-09-19T16:26:01;21.10;1.00
573;DHT22;271;51.114;13.780;2023-09-19T16:28:53;21.10;1.00
573;DHT22;271;51.114;13.780;2023-09-19T16:31:43;21.00;1.00
573;DHT22;271;51.114;13.780;2023-09-19T16:34:31;20.90;1.00
573;DHT22;271;51.114;13.780;2023-09-19T16:37:19;20.90;1.00
573;DHT22;271;51.114;13.780;2023-09-19T16:40:07;20.80;1.00
573;DHT22;271;51.114;13.780;2023-09-19T16:42:56;20.80;1.00
573;DHT22;271;51.114;13.780;2023-09-19T16:45:53;20.80;1.00
573;DHT22;271;51.114;13.780;2023-09-19T16:48:54;20.70;1.00
573;DHT22;271;51.114;13.780;2023-09-19T16:51:42;20.80;1.00
573;DHT22;271;51.114;13.780;2023-09-19T16:54:30;20.60;1.00
573;DHT22;271;51.114;13.780;2023-09-19T16:57:21;20.60;1.00
573;DHT22;271;51.114;13.780;2023-09-19T17:00:10;20.50;1.00
573;DHT22;271;51.114;13.780;2023-09-19T17:03:02;20.50;1.00
573;DHT22;271;51.114;13.780;2023-09-19T17:05:51;20.30;1.00
573;DHT22;271;51.114;13.780;2023-09-19T17:08:40;20.30;1.00
573;DHT22;271;51.114;13.780;2023-09-19T17:11:29;20.20;1.00
573;DHT22;271;51.114;13.780;2023-09-19T17:14:17;20.20;1.00
573;DHT22;271;51.114;13.780;2023-09-19T17:17:05;20.10;1.00
573;DHT22;271;51.114;13.780;2023-09-19T17:19:54;20.00;1.00
573;DHT22;271;51.114;13.780;2023-09-19T17:22:42;20.00;1.00
573;DHT22;271;51.114;13.780;2023-09-19T17:25:29;19.90;1.00
573;DHT22;271;51.114;13.780;2023-09-19T17:28:19;19.80;1.00
573;DHT22;271;51.114;13.780;2023-09-19T17:31:09;19.70;1.00
573;DHT22;271;51.114;13.780;2023-09-19T17:33:58;19.60;1.00
573;DHT22;271;51.114;13.780;2023-09-19T17:36:47;19.60;1.00
573;DHT22;271;51.114;13.780;2023-09-19T17:39:35;19.50;1.00
573;DHT22;271;51.114;13.780;2023-09-19T17:42:22;19.50;1.00
573;DHT22;271;51.114;13.780;2023-09-19T17:45:11;19.40;1.00
573;DHT22;271;51.114;13.780;2023-09-19T17:48:00;19.30;1.00
573;DHT22;271;51.114;13.780;2023-09-19T17:50:47;19.30;1.00
573;DHT22;271;51.114;13.780;2023-09-19T17:53:38;19.10;1.00
573;DHT22;271;51.114;13.780;2023-09-19T17:56:26;19.10;1.00
573;DHT22;271;51.114;13.780;2023-09-19T17:59:14;19.10;1.00
573;DHT22;271;51.114;13.780;2023-09-19T18:02:03;19.00;1.00
573;DHT22;271;51.114;13.780;2023-09-19T18:04:51;18.90;1.00
573;DHT22;271;51.114;13.780;2023-09-19T18:07:42;18.90;1.00
573;DHT22;271;51.114;13.780;2023-09-19T18:10:36;18.90;1.00
573;DHT22;271;51.114;13.780;2023-09-19T18:13:24;18.80;1.00
573;DHT22;271;51.114;13.780;2023-09-19T18:16:12;18.70;1.00
573;DHT22;271;51.114;13.780;2023-09-19T18:19:00;18.70;1.00
573;DHT22;271;51.114;13.780;2023-09-19T18:21:47;18.70;1.00
573;DHT22;271;51.114;13.780;2023-09-19T18:24:37;18.60;1.00
573;DHT22;271;51.114;13.780;2023-09-19T18:27:26;18.60;1.00
573;DHT22;271;51.114;13.780;2023-09-19T18:30:17;18.50;1.00
573;DHT22;271;51.114;13.780;2023-09-19T18:33:05;18.40;1.00
573;DHT22;271;51.114;13.780;2023-09-19T18:35:52;18.30;1.00
573;DHT22;271;51.114;13.780;2023-09-19T18:38:41;18.20;1.00
573;DHT22;271;51.114;13.780;2023-09-19T18:41:29;18.00;1.00
573;DHT22;271;51.114;13.780;2023-09-19T18:44:19;17.90;1.00
573;DHT22;271;51.114;13.780;2023-09-19T18:47:07;17.80;1.00
573;DHT22;271;51.114;13.780;2023-09-19T18:49:55;17.70;1.00
573;DHT22;271;51.114;13.780;2023-09-19T18:52:42;17.50;1.00
573;DHT22;271;51.114;13.780;2023-09-19T18:55:30;17.40;1.00
573;DHT22;271;51.114;13.780;2023-09-19T18:58:18;17.30;1.00
573;DHT22;271;51.114;13.780;2023-09-19T19:01:08;17.20;1.00
573;DHT22;271;51.114;13.780;2023-09-19T19:03:56;17.10;1.00
573;DHT22;271;51.114;13.780;2023-09-19T19:06:43;17.10;1.00
573;DHT22;271;51.114;13.780;2023-09-19T19:09:31;16.90;1.00
573;DHT22;271;51.114;13.780;2023-09-19T19:12:19;16.90;1.00
573;DHT22;271;51.114;13.780;2023-09-19T19:15:08;16.80;1.00
573;DHT22;271;51.114;13.780;2023-09-19T19:17:57;16.70;1.00